createdAt,value
2017-10-08T00:02:25.571Z,98647
2017-10-08T00:04:53.663Z,98646
2017-10-08T00:07:21.723Z,98634
2017-10-08T00:09:49.804Z,98635
2017-10-08T00:12:18.803Z,98636
2017-10-08T00:14:47.762Z,98626
2017-10-08T00:17:15.827Z,98623
2017-10-08T00:19:43.908Z,98623
2017-10-08T00:22:11.986Z,98623
2017-10-08T00:24:40.071Z,98616
2017-10-08T00:27:08.140Z,98614
2017-10-08T00:29:36.215Z,98619
2017-10-08T00:32:04.300Z,98612
2017-10-08T00:34:32.368Z,98611
2017-10-08T00:37:00.443Z,98606
2017-10-08T00:39:28.512Z,98597
2017-10-08T00:41:56.594Z,98602
2017-10-08T00:44:25.454Z,98595
2017-10-08T00:46:53.524Z,98593
2017-10-08T00:49:21.591Z,98577
2017-10-08T00:51:49.666Z,98589
2017-10-08T00:54:17.748Z,98573
2017-10-08T00:56:45.828Z,98581
2017-10-08T00:59:13.911Z,98584
2017-10-08T01:01:41.983Z,98570
2017-10-08T01:04:10.064Z,98575
2017-10-08T01:06:38.923Z,98572
2017-10-08T01:09:06.990Z,98572
2017-10-08T01:11:35.069Z,98581
2017-10-08T01:14:03.139Z,98578
2017-10-08T01:16:31.207Z,98573
2017-10-08T01:18:59.279Z,98575
2017-10-08T01:21:27.350Z,98562
2017-10-08T01:23:55.427Z,98573
2017-10-08T01:26:23.498Z,98576
2017-10-08T01:28:51.570Z,98578
2017-10-08T01:31:19.644Z,98575
2017-10-08T01:33:47.730Z,98572
2017-10-08T01:36:15.807Z,98567
2017-10-08T01:38:43.893Z,98561
2017-10-08T01:41:11.955Z,98551
2017-10-08T01:43:40.042Z,98555
2017-10-08T01:46:08.115Z,98559
2017-10-08T01:48:36.951Z,98565
2017-10-08T01:51:05.796Z,98567
2017-10-08T01:53:34.647Z,98560
2017-10-08T01:56:02.724Z,98571
2017-10-08T01:58:30.799Z,98563
2017-10-08T02:00:58.888Z,98562
2017-10-08T02:03:26.959Z,98572
2017-10-08T02:05:55.039Z,98561
2017-10-08T02:08:23.116Z,98560
2017-10-08T02:10:51.191Z,98559
2017-10-08T02:13:19.287Z,98557
2017-10-08T02:15:48.124Z,98563
2017-10-08T02:18:16.194Z,98568
2017-10-08T02:20:44.277Z,98566
2017-10-08T02:23:12.338Z,98573
2017-10-08T02:25:41.353Z,98562
2017-10-08T02:28:09.423Z,98562
2017-10-08T02:30:37.517Z,98566
2017-10-08T02:33:06.360Z,98559
2017-10-08T02:35:34.424Z,98560
2017-10-08T02:38:02.512Z,98557
2017-10-08T02:40:30.587Z,98560
2017-10-08T02:42:58.680Z,98561
2017-10-08T02:45:26.748Z,98569
2017-10-08T02:47:54.832Z,98577
2017-10-08T02:50:22.903Z,98567
2017-10-08T02:52:50.980Z,98569
2017-10-08T02:55:19.052Z,98571
2017-10-08T02:57:47.127Z,98575
2017-10-08T03:00:15.204Z,98579
2017-10-08T03:02:44.062Z,98573
2017-10-08T03:05:12.135Z,98576
2017-10-08T03:07:40.220Z,98577
2017-10-08T03:10:08.291Z,98573
2017-10-08T03:12:37.383Z,98595
2017-10-08T03:15:05.577Z,98585
2017-10-08T03:17:33.648Z,98583
2017-10-08T03:20:01.723Z,98595
2017-10-08T03:22:29.795Z,98592
2017-10-08T03:24:57.871Z,98594
2017-10-08T03:27:26.706Z,98603
2017-10-08T03:29:54.791Z,98595
2017-10-08T03:32:22.864Z,98599
2017-10-08T03:34:50.943Z,98596
2017-10-08T03:37:19.011Z,98595
2017-10-08T03:39:47.088Z,98594
2017-10-08T03:42:16.251Z,98588
2017-10-08T03:44:44.420Z,98596
2017-10-08T03:47:12.486Z,98589
2017-10-08T03:49:41.331Z,98587
2017-10-08T03:52:09.398Z,98594
2017-10-08T03:54:37.487Z,98601
2017-10-08T03:57:05.579Z,98595
2017-10-08T03:59:34.415Z,98590
2017-10-08T04:02:03.262Z,98593
2017-10-08T04:04:32.107Z,98605
2017-10-08T04:07:00.188Z,98596
2017-10-08T04:09:28.259Z,98598
2017-10-08T04:11:56.335Z,98593
2017-10-08T04:14:24.403Z,98599
2017-10-08T04:16:52.479Z,98603
2017-10-08T04:19:20.553Z,98608
2017-10-08T04:21:48.639Z,98595
2017-10-08T04:24:16.711Z,98598
2017-10-08T04:26:44.795Z,98596
2017-10-08T04:29:12.867Z,98597
2017-10-08T04:31:40.975Z,98591
2017-10-08T04:34:09.063Z,98610
2017-10-08T04:36:37.134Z,98612
2017-10-08T04:39:05.210Z,98610
2017-10-08T04:41:33.283Z,98610
2017-10-08T04:44:01.356Z,98608
2017-10-08T04:46:29.427Z,98604
2017-10-08T04:48:57.547Z,98613
2017-10-08T04:51:25.627Z,98615
2017-10-08T04:53:53.699Z,98615
2017-10-08T04:56:21.767Z,98623
2017-10-08T04:58:49.839Z,98627
2017-10-08T05:01:17.913Z,98626
2017-10-08T05:03:45.992Z,98627
2017-10-08T05:06:14.822Z,98627
2017-10-08T05:08:43.667Z,98630
2017-10-08T05:11:11.743Z,98634
2017-10-08T05:13:40.580Z,98624
2017-10-08T05:16:08.652Z,98631
2017-10-08T05:18:37.479Z,98644
2017-10-08T05:21:05.564Z,98645
2017-10-08T05:23:33.627Z,98646
2017-10-08T05:26:01.707Z,98647
2017-10-08T05:28:29.771Z,98646
2017-10-08T05:30:57.851Z,98659
2017-10-08T05:33:25.924Z,98655
2017-10-08T05:35:53.994Z,98664
2017-10-08T05:38:22.060Z,98667
2017-10-08T05:40:50.152Z,98674
2017-10-08T05:43:18.987Z,98679
2017-10-08T05:45:47.054Z,98670
2017-10-08T05:48:15.912Z,98674
2017-10-08T05:50:44.744Z,98678
2017-10-08T05:53:12.831Z,98682
2017-10-08T05:55:40.899Z,98682
2017-10-08T05:58:08.971Z,98689
2017-10-08T06:00:37.044Z,98690
2017-10-08T06:03:05.119Z,98690
2017-10-08T06:05:33.191Z,98685
2017-10-08T06:08:01.274Z,98693
2017-10-08T06:10:29.339Z,98703
2017-10-08T06:12:57.411Z,98699
2017-10-08T06:15:26.403Z,98707
2017-10-08T06:17:54.475Z,98714
2017-10-08T06:20:22.546Z,98712
2017-10-08T06:22:50.632Z,98707
2017-10-08T06:25:18.700Z,98713
2017-10-08T06:27:46.854Z,98712
2017-10-08T06:30:14.991Z,98724
2017-10-08T06:32:43.836Z,98727
2017-10-08T06:35:11.903Z,98739
2017-10-08T06:37:39.988Z,98732
2017-10-08T06:40:08.060Z,98740
2017-10-08T06:42:37.392Z,98736
2017-10-08T06:45:06.348Z,98742
2017-10-08T06:47:34.438Z,98740
2017-10-08T06:50:02.513Z,98736
2017-10-08T06:52:31.647Z,98748
2017-10-08T06:54:59.838Z,98742
2017-10-08T06:57:28.683Z,98742
2017-10-08T06:59:56.752Z,98740
2017-10-08T07:02:24.827Z,98744
2017-10-08T07:04:52.889Z,98742
2017-10-08T07:07:20.969Z,98747
2017-10-08T07:09:49.035Z,98744
2017-10-08T07:12:19.237Z,98738
2017-10-08T07:14:47.428Z,98745
2017-10-08T07:17:15.503Z,98753
2017-10-08T07:19:43.572Z,98748
2017-10-08T07:22:11.648Z,98741
2017-10-08T07:24:39.715Z,98764
2017-10-08T07:27:07.799Z,98749
2017-10-08T07:29:35.867Z,98755
2017-10-08T07:32:03.947Z,98742
2017-10-08T07:34:32.020Z,98748
2017-10-08T07:37:00.094Z,98737
2017-10-08T07:39:28.163Z,98755
2017-10-08T07:41:56.236Z,98760
2017-10-08T07:44:24.309Z,98763
2017-10-08T07:46:52.387Z,98764
2017-10-08T07:49:20.459Z,98765
2017-10-08T07:51:49.324Z,98765
2017-10-08T07:54:17.400Z,98765
2017-10-08T07:56:45.476Z,98756
2017-10-08T07:59:13.551Z,98757
2017-10-08T08:01:41.636Z,98771
2017-10-08T08:04:09.706Z,98768
2017-10-08T08:06:37.784Z,98763
2017-10-08T08:09:06.628Z,98780
2017-10-08T08:11:34.708Z,98775
2017-10-08T08:14:02.860Z,98770
2017-10-08T08:16:30.939Z,98795
2017-10-08T08:18:59.403Z,98793
2017-10-08T08:21:27.606Z,98783
2017-10-08T08:23:55.696Z,98788
2017-10-08T08:26:23.972Z,98781
2017-10-08T08:28:52.059Z,98787
2017-10-08T08:31:20.132Z,98793
2017-10-08T08:33:48.231Z,98798
2017-10-08T08:36:17.071Z,98798
2017-10-08T08:38:45.152Z,98799
2017-10-08T08:41:13.232Z,98805
2017-10-08T08:43:41.328Z,98801
2017-10-08T08:46:09.395Z,98798
2017-10-08T08:48:37.483Z,98795
2017-10-08T08:51:06.337Z,98801
2017-10-08T08:53:34.428Z,98799
2017-10-08T08:56:02.503Z,98803
2017-10-08T08:58:30.583Z,98804
2017-10-08T09:00:59.421Z,98810
2017-10-08T09:03:27.507Z,98814
2017-10-08T09:05:55.585Z,98824
2017-10-08T09:08:23.656Z,98818
2017-10-08T09:10:51.768Z,98825
2017-10-08T09:13:20.620Z,98817
2017-10-08T09:15:48.700Z,98817
2017-10-08T09:18:16.823Z,98819
2017-10-08T09:20:44.900Z,98817
2017-10-08T09:23:12.971Z,98807
2017-10-08T09:25:41.034Z,98821
2017-10-08T09:28:09.924Z,98820
2017-10-08T09:30:38.775Z,98820
2017-10-08T09:33:06.856Z,98814
2017-10-08T09:35:35.004Z,98802
2017-10-08T09:38:03.097Z,98808
2017-10-08T09:40:31.170Z,98801
2017-10-08T09:42:59.264Z,98803
2017-10-08T09:45:27.337Z,98813
2017-10-08T09:47:55.419Z,98815
2017-10-08T09:50:24.267Z,98822
2017-10-08T09:52:52.376Z,98818
2017-10-08T09:55:21.226Z,98827
2017-10-08T09:57:49.333Z,98837
2017-10-08T10:00:17.419Z,98826
2017-10-08T10:02:46.276Z,98826
2017-10-08T10:05:14.357Z,98840
2017-10-08T10:07:42.448Z,98827
2017-10-08T10:10:11.308Z,98835
2017-10-08T10:12:39.716Z,98838
2017-10-08T10:15:10.946Z,98836
2017-10-08T10:17:39.931Z,98839
2017-10-08T10:20:07.998Z,98837
2017-10-08T10:22:36.072Z,98843
2017-10-08T10:25:05.475Z,98837
2017-10-08T10:27:33.564Z,98844
2017-10-08T10:30:02.943Z,98839
2017-10-08T10:32:31.022Z,98839
2017-10-08T10:34:59.104Z,98838
2017-10-08T10:37:27.232Z,98834
2017-10-08T10:39:55.311Z,98835
2017-10-08T10:42:23.399Z,98851
2017-10-08T10:44:51.467Z,98836
2017-10-08T10:47:19.547Z,98833
2017-10-08T10:49:47.608Z,98836
2017-10-08T10:52:15.683Z,98831
2017-10-08T10:54:44.528Z,98829
2017-10-08T10:57:12.652Z,98831
2017-10-08T10:59:40.740Z,98819
2017-10-08T11:02:08.820Z,98821
2017-10-08T11:04:36.981Z,98816
2017-10-08T11:07:05.050Z,98827
2017-10-08T11:09:33.956Z,98829
2017-10-08T11:12:02.029Z,98815
2017-10-08T11:14:30.127Z,98814
2017-10-08T11:16:58.187Z,98826
2017-10-08T11:19:26.293Z,98826
2017-10-08T11:21:55.523Z,98817
2017-10-08T11:24:23.697Z,98815
2017-10-08T11:26:51.779Z,98825
2017-10-08T11:29:19.880Z,98825
2017-10-08T11:31:47.956Z,98829
2017-10-08T11:34:16.048Z,98820
2017-10-08T11:36:44.909Z,98826
2017-10-08T11:39:12.987Z,98835
2017-10-08T11:41:41.059Z,98839
2017-10-08T11:44:09.144Z,98835
2017-10-08T11:46:37.217Z,98838
2017-10-08T11:49:05.312Z,98839
2017-10-08T11:51:34.154Z,98827
2017-10-08T11:54:02.229Z,98827
2017-10-08T11:56:30.335Z,98839
2017-10-08T11:58:59.207Z,98840
2017-10-08T12:01:27.311Z,98845
2017-10-08T12:03:56.155Z,98844
2017-10-08T12:06:24.245Z,98836
2017-10-08T12:08:52.311Z,98830
2017-10-08T12:11:20.408Z,98835
2017-10-08T12:13:49.250Z,98833
2017-10-08T12:16:17.330Z,98835
2017-10-08T12:18:45.408Z,98832
2017-10-08T12:21:13.500Z,98829
2017-10-08T12:23:41.602Z,98822
2017-10-08T12:26:10.459Z,98826
2017-10-08T12:28:38.540Z,98817
2017-10-08T12:31:06.610Z,98821
2017-10-08T12:33:34.688Z,98812
2017-10-08T12:36:02.995Z,98827
2017-10-08T12:38:31.080Z,98814
2017-10-08T12:40:59.152Z,98819
2017-10-08T12:43:27.233Z,98818
2017-10-08T12:45:55.309Z,98807
2017-10-08T12:48:23.392Z,98817
2017-10-08T12:50:52.228Z,98813
2017-10-08T12:53:21.087Z,98815
2017-10-08T12:55:49.186Z,98817
2017-10-08T12:58:17.251Z,98820
2017-10-08T13:00:45.315Z,98823
2017-10-08T13:03:14.352Z,98820
2017-10-08T13:05:42.423Z,98827
2017-10-08T13:08:10.508Z,98819
2017-10-08T13:10:38.589Z,98822
2017-10-08T13:13:06.668Z,98826
2017-10-08T13:15:34.730Z,98819
2017-10-08T13:18:04.501Z,98820
2017-10-08T13:20:32.559Z,98817
2017-10-08T13:23:00.652Z,98810
2017-10-08T13:25:29.495Z,98810
2017-10-08T13:27:57.579Z,98819
2017-10-08T13:30:25.713Z,98823
2017-10-08T13:32:53.924Z,98814
2017-10-08T13:35:22.004Z,98805
2017-10-08T13:37:50.071Z,98807
2017-10-08T13:40:18.143Z,98811
2017-10-08T13:42:46.215Z,98808
2017-10-08T13:45:14.303Z,98818
2017-10-08T13:47:42.375Z,98821
2017-10-08T13:50:10.472Z,98828
2017-10-08T13:52:39.316Z,98820
2017-10-08T13:55:07.390Z,98826
2017-10-08T13:57:35.467Z,98822
2017-10-08T14:00:03.556Z,98833
2017-10-08T14:02:31.632Z,98826
2017-10-08T14:04:59.731Z,98826
2017-10-08T14:07:28.568Z,98834
2017-10-08T14:09:58.304Z,98829
2017-10-08T14:12:27.289Z,98834
2017-10-08T14:14:56.352Z,98831
2017-10-08T14:17:25.195Z,98826
2017-10-08T14:19:53.270Z,98821
2017-10-08T14:22:21.347Z,98820
2017-10-08T14:24:50.193Z,98823
2017-10-08T14:27:18.281Z,98826
2017-10-08T14:29:46.426Z,98816
2017-10-08T14:32:14.500Z,98824
2017-10-08T14:34:42.577Z,98821
2017-10-08T14:37:10.677Z,98823
2017-10-08T14:39:38.760Z,98825
2017-10-08T14:42:06.852Z,98824
2017-10-08T14:44:35.695Z,98824
2017-10-08T14:47:03.772Z,98831
2017-10-08T14:49:31.857Z,98824
2017-10-08T14:51:59.947Z,98828
2017-10-08T14:54:28.019Z,98821
2017-10-08T14:56:56.095Z,98822
2017-10-08T14:59:24.168Z,98823
2017-10-08T15:01:52.240Z,98816
2017-10-08T15:04:20.318Z,98828
2017-10-08T15:06:48.384Z,98822
2017-10-08T15:09:16.467Z,98815
2017-10-08T15:11:45.327Z,98822
2017-10-08T15:14:13.425Z,98819
2017-10-08T15:16:41.490Z,98817
2017-10-08T15:19:09.566Z,98821
2017-10-08T15:21:37.640Z,98826
2017-10-08T15:24:05.724Z,98822
2017-10-08T15:26:34.566Z,98839
2017-10-08T15:29:02.664Z,98834
2017-10-08T15:31:30.740Z,98840
2017-10-08T15:33:58.819Z,98848
2017-10-08T15:36:27.130Z,98854
2017-10-08T15:38:55.216Z,98887
2017-10-08T15:41:24.136Z,98896
2017-10-08T15:43:52.204Z,98897
2017-10-08T15:46:20.287Z,98909
2017-10-08T15:48:48.360Z,98907
2017-10-08T15:51:16.439Z,98915
2017-10-08T15:53:44.513Z,98919
2017-10-08T15:56:12.603Z,98917
2017-10-08T15:58:41.453Z,98921
2017-10-08T16:01:09.540Z,98928
2017-10-08T16:03:37.620Z,98928
2017-10-08T16:06:05.751Z,98935
2017-10-08T16:08:33.959Z,98939
2017-10-08T16:11:02.053Z,98949
2017-10-08T16:13:30.919Z,98940
2017-10-08T16:15:59.015Z,98946
2017-10-08T16:18:27.140Z,98941
2017-10-08T16:20:55.212Z,98950
2017-10-08T16:23:23.295Z,98961
2017-10-08T16:25:51.391Z,98966
2017-10-08T16:28:19.469Z,98968
2017-10-08T16:30:47.544Z,98972
2017-10-08T16:33:15.635Z,98965
2017-10-08T16:35:44.486Z,98978
2017-10-08T16:38:12.584Z,98977
2017-10-08T16:40:40.664Z,98974
2017-10-08T16:43:08.758Z,98987
2017-10-08T16:45:37.613Z,98986
2017-10-08T16:48:05.691Z,98982
2017-10-08T16:50:33.840Z,98989
2017-10-08T16:53:02.729Z,98985
2017-10-08T16:55:30.816Z,98991
2017-10-08T16:57:58.916Z,98989
2017-10-08T17:00:27.012Z,98994
2017-10-08T17:02:55.846Z,99003
2017-10-08T17:05:23.940Z,99018
2017-10-08T17:07:52.011Z,99011
2017-10-08T17:10:20.094Z,99021
2017-10-08T17:12:48.171Z,99017
2017-10-08T17:15:17.040Z,99021
2017-10-08T17:17:45.152Z,99030
2017-10-08T17:20:14.000Z,99035
2017-10-08T17:22:42.082Z,99036
2017-10-08T17:25:10.167Z,99050
2017-10-08T17:27:38.242Z,99052
2017-10-08T17:30:06.320Z,99053
2017-10-08T17:32:35.162Z,99049
2017-10-08T17:35:03.244Z,99054
2017-10-08T17:37:31.330Z,99049
2017-10-08T17:39:59.423Z,99062
2017-10-08T17:42:28.280Z,99059
2017-10-08T17:44:56.383Z,99062
2017-10-08T17:47:24.520Z,99071
2017-10-08T17:49:52.605Z,99065
2017-10-08T17:52:20.696Z,99071
2017-10-08T17:54:48.778Z,99077
2017-10-08T17:57:16.883Z,99074
2017-10-08T17:59:44.965Z,99085
2017-10-08T18:02:13.807Z,99080
2017-10-08T18:04:41.896Z,99083
2017-10-08T18:07:10.775Z,99081
2017-10-08T18:09:38.865Z,99085
2017-10-08T18:12:08.005Z,99081
2017-10-08T18:14:36.203Z,99091
2017-10-08T18:17:04.293Z,99094
2017-10-08T18:19:32.373Z,99097
2017-10-08T18:22:01.221Z,99101
2017-10-08T18:24:29.311Z,99105
2017-10-08T18:26:57.388Z,99109
2017-10-08T18:29:25.497Z,99106
2017-10-08T18:31:54.335Z,99100
2017-10-08T18:34:22.448Z,99105
2017-10-08T18:36:51.299Z,99105
2017-10-08T18:39:19.388Z,99101
2017-10-08T18:41:47.464Z,99107
2017-10-08T18:44:15.564Z,99106
2017-10-08T18:46:44.405Z,99113
2017-10-08T18:49:12.478Z,99115
2017-10-08T18:51:40.563Z,99111
2017-10-08T18:54:08.643Z,99114
2017-10-08T18:56:38.530Z,99110
2017-10-08T18:59:06.605Z,99113
2017-10-08T19:01:34.697Z,99126
2017-10-08T19:04:02.786Z,99122
2017-10-08T19:06:31.652Z,99127
2017-10-08T19:08:59.723Z,99130
2017-10-08T19:11:27.800Z,99137
2017-10-08T19:13:55.871Z,99135
2017-10-08T19:16:23.955Z,99133
2017-10-08T19:18:52.040Z,99132
2017-10-08T19:21:20.133Z,99140
2017-10-08T19:23:48.973Z,99141
2017-10-08T19:26:17.059Z,99150
2017-10-08T19:28:45.131Z,99136
2017-10-08T19:31:13.211Z,99144
2017-10-08T19:33:41.288Z,99146
2017-10-08T19:36:09.362Z,99143
2017-10-08T19:38:37.435Z,99140
2017-10-08T19:41:05.520Z,99152
2017-10-08T19:43:34.360Z,99143
2017-10-08T19:46:02.441Z,99141
2017-10-08T19:48:30.524Z,99127
2017-10-08T19:50:58.598Z,99133
2017-10-08T19:53:26.677Z,99140
2017-10-08T19:55:54.758Z,99147
2017-10-08T19:58:23.604Z,99147
2017-10-08T20:00:51.696Z,99151
2017-10-08T20:03:19.768Z,99155
2017-10-08T20:05:47.845Z,99161
2017-10-08T20:08:15.921Z,99161
2017-10-08T20:10:44.000Z,99159
2017-10-08T20:13:12.072Z,99153
2017-10-08T20:15:40.151Z,99158
2017-10-08T20:18:08.227Z,99161
2017-10-08T20:20:36.311Z,99165
2017-10-08T20:23:05.147Z,99164
2017-10-08T20:25:33.235Z,99166
2017-10-08T20:28:01.312Z,99174
2017-10-08T20:30:29.396Z,99168
2017-10-08T20:32:57.483Z,99173
2017-10-08T20:35:25.571Z,99175
2017-10-08T20:37:54.461Z,99178
2017-10-08T20:40:23.317Z,99176
2017-10-08T20:42:51.398Z,99171
2017-10-08T20:45:19.484Z,99174
2017-10-08T20:47:47.555Z,99188
2017-10-08T20:50:15.628Z,99178
2017-10-08T20:52:43.699Z,99186
2017-10-08T20:55:11.785Z,99181
2017-10-08T20:57:40.632Z,99184
2017-10-08T21:00:08.721Z,99188
2017-10-08T21:02:36.807Z,99190
2017-10-08T21:05:04.904Z,99182
2017-10-08T21:07:33.745Z,99190
2017-10-08T21:10:01.832Z,99194
2017-10-08T21:12:29.920Z,99197
2017-10-08T21:14:58.012Z,99205
2017-10-08T21:17:26.850Z,99199
2017-10-08T21:19:54.929Z,99206
2017-10-08T21:22:23.024Z,99204
2017-10-08T21:24:51.089Z,99205
2017-10-08T21:27:19.170Z,99213
2017-10-08T21:29:47.239Z,99206
2017-10-08T21:32:15.324Z,99204
2017-10-08T21:34:44.168Z,99209
2017-10-08T21:37:12.248Z,99211
2017-10-08T21:39:40.327Z,99206
2017-10-08T21:42:08.416Z,99211
2017-10-08T21:44:36.515Z,99211
2017-10-08T21:47:05.359Z,99212
2017-10-08T21:49:33.431Z,99201
2017-10-08T21:52:01.521Z,99210
2017-10-08T21:54:29.591Z,99204
2017-10-08T21:56:57.686Z,99203
2017-10-08T21:59:26.527Z,99203
2017-10-08T22:01:54.667Z,99209
2017-10-08T22:04:23.503Z,99203
2017-10-08T22:06:51.587Z,99215
2017-10-08T22:09:19.734Z,99204
2017-10-08T22:11:48.583Z,99214
2017-10-08T22:14:17.423Z,99216
2017-10-08T22:16:45.508Z,99212
2017-10-08T22:19:13.583Z,99218
2017-10-08T22:21:41.706Z,99230
2017-10-08T22:24:09.794Z,99226
2017-10-08T22:26:37.888Z,99240
2017-10-08T22:29:05.972Z,99232
2017-10-08T22:31:34.059Z,99231
2017-10-08T22:34:02.175Z,99233
2017-10-08T22:36:30.279Z,99236
2017-10-08T22:38:58.350Z,99244
2017-10-08T22:41:26.436Z,99239
2017-10-08T22:43:54.512Z,99232
2017-10-08T22:46:22.604Z,99235
2017-10-08T22:48:50.895Z,99229
2017-10-08T22:51:19.752Z,99241
2017-10-08T22:53:47.842Z,99232
2017-10-08T22:56:15.924Z,99235
2017-10-08T22:58:44.003Z,99236
2017-10-08T23:01:12.856Z,99228
2017-10-08T23:03:40.947Z,99230
2017-10-08T23:06:09.043Z,99227
2017-10-08T23:08:37.879Z,99233
2017-10-08T23:11:06.731Z,99225
2017-10-08T23:13:35.577Z,99238
2017-10-08T23:16:03.670Z,99240
2017-10-08T23:18:31.744Z,99245
2017-10-08T23:20:59.828Z,99248
2017-10-08T23:23:28.663Z,99245
2017-10-08T23:25:56.756Z,99241
2017-10-08T23:28:24.831Z,99248
2017-10-08T23:30:52.927Z,99253
2017-10-08T23:33:21.003Z,99257
2017-10-08T23:35:49.087Z,99248
2017-10-08T23:38:17.940Z,99245
2017-10-08T23:40:46.039Z,99237
2017-10-08T23:43:14.118Z,99246
2017-10-08T23:45:42.970Z,99253
2017-10-08T23:48:11.059Z,99250
2017-10-08T23:50:39.155Z,99258
2017-10-08T23:53:07.996Z,99262
2017-10-08T23:55:36.067Z,99259
2017-10-08T23:58:04.156Z,99257
